Arapahoe, CO

8:58 PM MDT on September 03, 2015 (GMT -0600)
KWS | | Change Station
CLOSE
Current Station
Personal Weather Station
Location: Cheyenne Wells, CO
Elevation: 4252 ft
Nearby Weather Stations

Elev 4252 ft 38.82 °N, 102.33 °W | Updated 3 minutes ago

Partly Cloudy
Partly Cloudy
83.7 °F
Feels Like 81 °F
N
12.0
Wind Variable Wind from South
Gusts 15.0 mph

Today
High -- | Low -- °F
--% Chance of Precip.
Yesterday
High -- | Low -- °F
Precip. -- in
6:19 AM 7:16 PM
Waning Gibbous, 64% visible
Pressure 29.68 in
Visibility 10.0 miles
Clouds Scattered Clouds 9000 ft
Overcast 11000 ft
Heat Index 81 °F
Dew Point 46 °F
Humidity 27%
Rainfall 0.00 in
Snow Depth Not available.
UV 0 out of 12
Pollen 10.80 out of 12
Air Quality Not available.
Flu Activity Not available.
METAR KITR 040253Z AUTO 00000KT 10SM SCT090 OVC110 27/09 A2988 RMK AO2 SLP051 T02720089 53013
Pressure 29.68 in
Visibility 10.0 miles
Clouds Scattered Clouds 9000 ft
Overcast 11000 ft
Heat Index 81 °F
Dew Point 46 °F
Humidity 27%
Rainfall 0.00 in
Snow Depth Not available.
UV 0 out of 12
Pollen 10.80 out of 12
Air Quality Not available.
Flu Activity Not available.
METAR KITR 040253Z AUTO 00000KT 10SM SCT090 OVC110 27/09 A2988 RMK AO2 SLP051 T02720089 53013

10-Day Weather Forecast

×

Almanac

Astronomy

Sep. 03, 2015 Rise Set
Actual Time
Civil Twilight
Nautical Twilight
Astronomical Twilight
Moon
Length of Visible Light
Length of Day
Tomorrow will be .
, % of the Moon is Illuminated

Today's Extremes

State Highs State Lows

Community

WunderPhotos

Upload Photos

1,852,106 photos uploaded!

WunderBlogs® & News

Nearby

Air Quality

  Air Quality AQ Index Pollutant
Not available.

Snow Depth

Station Depth Elevation

Earthquake Activity

City Distance Mag. Time & Date
Minimum magnitude displayed is 2.5.

Coastal Water Temperatures

Place Temperature

Stations

Nearby Weather Stations

Station Location Temp. Windchill Dew Point Humidity Wind Precip. Elev Updated Type